HIP weather

Headingly Airport
Queensland, Australia

Public forecast

Using degrees Celsius for public forecast. Weather courtesy of forecast.io.

METAR (pilot weather report)

Closest report is Mount Isa Airport, 78.6 nm (145.6 km) ENE. Retrieved 2019/04/20 00:00 UTC (7 minutes ago):

YBMA 200000Z AUTO 07015KT 9999 // SCT089 28/11 Q1018

TAF (pilot weather forecast)

Forecast is more than 12 hours old.

Closest forecast is Mount Isa Airport, 78.6 nm (145.6 km) ENE. Retrieved 2019/04/19 00:03 UTC (1 day ago):

TAF TAF YBMA 192231Z 2000/2012 09012KT CAVOK